createdAt,value
2017-03-02T00:00:45.798Z,0
2017-03-02T00:01:56.086Z,0
2017-03-02T00:03:06.360Z,0
2017-03-02T00:04:16.616Z,0
2017-03-02T00:05:26.896Z,0
2017-03-02T00:06:37.087Z,0
2017-03-02T00:07:46.579Z,0
2017-03-02T00:08:57.237Z,0
2017-03-02T00:10:07.514Z,0
2017-03-02T00:11:18.191Z,0
2017-03-02T00:12:29.107Z,0
2017-03-02T00:13:38.981Z,0
2017-03-02T00:14:49.263Z,0
2017-03-02T00:15:59.508Z,0
2017-03-02T00:17:10.167Z,0
2017-03-02T00:18:20.594Z,0
2017-03-02T00:19:30.474Z,0
2017-03-02T00:20:41.148Z,0
2017-03-02T00:21:51.809Z,0
2017-03-02T00:23:02.084Z,0
2017-03-02T00:24:12.843Z,0
2017-03-02T00:25:23.107Z,0
2017-03-02T00:26:33.770Z,0
2017-03-02T00:27:43.659Z,0
2017-03-02T00:28:53.977Z,0
2017-03-02T00:30:04.895Z,0
2017-03-02T00:31:15.536Z,0
2017-03-02T00:32:25.430Z,0
2017-03-02T00:33:35.319Z,0
2017-03-02T00:34:45.983Z,0
2017-03-02T00:35:56.869Z,0
2017-03-02T00:37:07.570Z,0
2017-03-02T00:38:17.916Z,0
2017-03-02T00:39:28.583Z,0
2017-03-02T00:40:39.269Z,0
2017-03-02T00:41:50.107Z,0
2017-03-02T00:43:00.399Z,0
2017-03-02T00:44:10.672Z,0
2017-03-02T00:45:20.945Z,0
2017-03-02T00:46:30.464Z,0
2017-03-02T00:47:40.639Z,0
2017-03-02T00:48:50.906Z,0
2017-03-02T00:50:01.160Z,0
2017-03-02T00:51:10.688Z,0
2017-03-02T00:52:21.352Z,0
2017-03-02T00:53:31.563Z,0
2017-03-02T00:54:41.447Z,0
2017-03-02T00:55:51.747Z,0
2017-03-02T00:57:02.407Z,0
2017-03-02T00:58:11.911Z,0
2017-03-02T00:59:22.080Z,0
2017-03-02T01:00:32.737Z,0
2017-03-02T01:01:43.408Z,0
2017-03-02T01:02:53.671Z,0
2017-03-02T01:04:04.329Z,0
2017-03-02T01:05:14.749Z,0
2017-03-02T01:06:25.345Z,0
2017-03-02T01:07:34.829Z,0
2017-03-02T01:08:45.112Z,0
2017-03-02T01:09:55.785Z,0
2017-03-02T01:11:06.298Z,0
2017-03-02T01:12:16.976Z,0
2017-03-02T01:13:27.254Z,0
2017-03-02T01:14:37.153Z,0
2017-03-02T01:15:47.423Z,0
2017-03-02T01:16:58.012Z,0
2017-03-02T01:18:07.899Z,0
2017-03-02T01:19:18.542Z,0
2017-03-02T01:20:28.798Z,0
2017-03-02T01:21:39.106Z,0
2017-03-02T01:22:49.688Z,0
2017-03-02T01:24:00.341Z,0
2017-03-02T01:25:10.220Z,0
2017-03-02T01:26:20.875Z,0
2017-03-02T01:27:31.565Z,0
2017-03-02T01:28:41.580Z,0
2017-03-02T01:29:52.239Z,0
2017-03-02T01:31:02.512Z,0
2017-03-02T01:32:12.392Z,0
2017-03-02T01:33:22.640Z,0
2017-03-02T01:34:33.276Z,0
2017-03-02T01:35:43.923Z,0
2017-03-02T01:36:54.590Z,0
2017-03-02T01:38:04.478Z,0
2017-03-02T01:39:14.751Z,0
2017-03-02T01:40:25.278Z,0
2017-03-02T01:41:35.937Z,0
2017-03-02T01:42:45.813Z,0
2017-03-02T01:43:55.712Z,0
2017-03-02T01:45:06.000Z,0
2017-03-02T01:46:16.604Z,0
2017-03-02T01:47:27.266Z,0
2017-03-02T01:48:37.940Z,0
2017-03-02T01:49:48.627Z,0
2017-03-02T01:50:58.893Z,0
2017-03-02T01:52:08.901Z,0
2017-03-02T01:53:18.785Z,0
2017-03-02T01:54:29.058Z,0
2017-03-02T01:55:39.326Z,0
2017-03-02T01:56:49.606Z,0
2017-03-02T01:58:00.563Z,0
2017-03-02T01:59:11.206Z,0
2017-03-02T02:00:21.094Z,0
2017-03-02T02:01:31.387Z,0
2017-03-02T02:02:41.270Z,0
2017-03-02T02:03:52.108Z,0
2017-03-02T02:05:02.385Z,0
2017-03-02T02:06:12.280Z,0
2017-03-02T02:07:22.176Z,0
2017-03-02T02:08:32.442Z,0
2017-03-02T02:09:43.340Z,0
2017-03-02T02:10:53.613Z,0
2017-03-02T02:12:04.268Z,0
2017-03-02T02:13:14.925Z,0
2017-03-02T02:14:25.195Z,0
2017-03-02T02:15:35.729Z,0
2017-03-02T02:16:46.013Z,0
2017-03-02T02:17:56.279Z,0
2017-03-02T02:19:06.549Z,0
2017-03-02T02:20:16.813Z,0
2017-03-02T02:21:27.761Z,0
2017-03-02T02:22:37.266Z,0
2017-03-02T02:23:47.532Z,0
2017-03-02T02:24:58.201Z,0
2017-03-02T02:26:08.482Z,0
2017-03-02T02:27:18.991Z,0
2017-03-02T02:28:29.273Z,0
2017-03-02T02:29:39.175Z,0
2017-03-02T02:30:49.474Z,0
2017-03-02T02:32:00.160Z,0
2017-03-02T02:33:10.908Z,0
2017-03-02T02:34:21.216Z,0
2017-03-02T02:35:31.109Z,0
2017-03-02T02:36:41.371Z,0
2017-03-02T02:37:50.897Z,0
2017-03-02T02:39:01.084Z,0
2017-03-02T02:40:11.756Z,0
2017-03-02T02:41:22.034Z,0
2017-03-02T02:42:32.301Z,0
2017-03-02T02:43:42.959Z,0
2017-03-02T02:44:53.587Z,0
2017-03-02T02:46:04.272Z,0
2017-03-02T02:47:13.779Z,0
2017-03-02T02:48:24.045Z,0
2017-03-02T02:49:34.324Z,0
2017-03-02T02:50:45.246Z,0
2017-03-02T02:51:55.138Z,0
2017-03-02T02:53:05.440Z,0
2017-03-02T02:54:15.345Z,0
2017-03-02T02:55:24.837Z,0
2017-03-02T02:56:35.251Z,0
2017-03-02T02:57:44.770Z,0
2017-03-02T02:58:55.032Z,0
2017-03-02T03:00:05.295Z,0
2017-03-02T03:01:15.945Z,0
2017-03-02T03:02:25.743Z,0
2017-03-02T03:03:36.434Z,0
2017-03-02T03:04:47.119Z,0
2017-03-02T03:05:56.591Z,0
2017-03-02T03:07:06.485Z,0
2017-03-02T03:08:16.897Z,0
2017-03-02T03:09:27.186Z,0
2017-03-02T03:10:37.082Z,0
2017-03-02T03:11:46.620Z,0
2017-03-02T03:12:56.899Z,0
2017-03-02T03:14:07.733Z,0
2017-03-02T03:15:17.594Z,0
2017-03-02T03:16:27.863Z,0
2017-03-02T03:17:38.139Z,0
2017-03-02T03:18:48.414Z,0
2017-03-02T03:19:58.773Z,0
2017-03-02T03:21:08.654Z,0
2017-03-02T03:22:19.305Z,0
2017-03-02T03:23:29.187Z,0
2017-03-02T03:24:39.447Z,0
2017-03-02T03:25:49.976Z,0
2017-03-02T03:26:59.848Z,0
2017-03-02T03:28:10.172Z,0
2017-03-02T03:29:20.818Z,0
2017-03-02T03:30:31.478Z,0
2017-03-02T03:31:42.024Z,0
2017-03-02T03:32:52.678Z,0
2017-03-02T03:34:02.931Z,0
2017-03-02T03:35:13.598Z,0
2017-03-02T03:36:24.260Z,0
2017-03-02T03:37:34.330Z,0
2017-03-02T03:38:43.835Z,0
2017-03-02T03:39:53.730Z,0
2017-03-02T03:41:04.430Z,0
2017-03-02T03:42:15.086Z,0
2017-03-02T03:43:25.491Z,0
2017-03-02T03:44:36.174Z,0
2017-03-02T03:45:46.451Z,0
2017-03-02T03:46:55.959Z,0
2017-03-02T03:48:06.609Z,0
2017-03-02T03:49:17.240Z,0
2017-03-02T03:50:27.938Z,0
2017-03-02T03:51:37.841Z,0
2017-03-02T03:52:48.101Z,0
2017-03-02T03:53:57.583Z,0
2017-03-02T03:55:08.401Z,0
2017-03-02T03:56:19.058Z,0
2017-03-02T03:57:29.346Z,0
2017-03-02T03:58:39.617Z,0
2017-03-02T03:59:49.884Z,0
2017-03-02T04:01:00.417Z,0
2017-03-02T04:02:11.091Z,0
2017-03-02T04:03:21.362Z,0
2017-03-02T04:04:31.236Z,0
2017-03-02T04:05:41.148Z,0
2017-03-02T04:06:52.053Z,0
2017-03-02T04:08:02.317Z,0
2017-03-02T04:09:12.596Z,0
2017-03-02T04:10:23.274Z,0
2017-03-02T04:11:33.579Z,0
2017-03-02T04:12:44.169Z,0
2017-03-02T04:13:54.847Z,0
2017-03-02T04:15:05.159Z,0
2017-03-02T04:16:15.058Z,0
2017-03-02T04:17:24.932Z,0
2017-03-02T04:18:35.570Z,0
2017-03-02T04:19:45.865Z,0
2017-03-02T04:20:56.514Z,0
2017-03-02T04:22:07.171Z,0
2017-03-02T04:23:17.040Z,0
2017-03-02T04:24:27.605Z,0
2017-03-02T04:25:37.868Z,0
2017-03-02T04:26:48.537Z,0
2017-03-02T04:27:59.193Z,0
2017-03-02T04:29:09.062Z,0
2017-03-02T04:30:19.676Z,0
2017-03-02T04:31:30.337Z,0
2017-03-02T04:32:41.011Z,0
2017-03-02T04:33:51.280Z,0
2017-03-02T04:35:01.198Z,0
2017-03-02T04:36:11.711Z,0
2017-03-02T04:37:22.351Z,0
2017-03-02T04:38:32.229Z,0
2017-03-02T04:39:42.123Z,0
2017-03-02T04:40:51.999Z,0
2017-03-02T04:42:02.058Z,0
2017-03-02T04:43:12.336Z,0
2017-03-02T04:44:22.112Z,0
2017-03-02T04:45:32.801Z,0
2017-03-02T04:46:43.495Z,0
2017-03-02T04:47:54.063Z,0
2017-03-02T04:49:04.734Z,0
2017-03-02T04:50:15.433Z,0
2017-03-02T04:51:26.089Z,0
2017-03-02T04:52:36.768Z,0
2017-03-02T04:53:47.585Z,0
2017-03-02T04:54:58.528Z,0
2017-03-02T04:56:09.200Z,0
2017-03-02T04:57:18.696Z,0
2017-03-02T04:58:28.577Z,0
2017-03-02T04:59:38.988Z,0
2017-03-02T05:00:49.153Z,0
2017-03-02T05:01:59.434Z,0
2017-03-02T05:03:10.104Z,0
2017-03-02T05:04:20.794Z,0
2017-03-02T05:05:31.395Z,0
2017-03-02T05:06:42.059Z,0
2017-03-02T05:07:52.344Z,0
2017-03-02T05:09:03.011Z,0
2017-03-02T05:10:12.116Z,0
2017-03-02T05:11:22.540Z,0
2017-03-02T05:12:33.205Z,0
2017-03-02T05:13:43.907Z,0
2017-03-02T05:14:54.587Z,0
2017-03-02T05:16:04.879Z,0
2017-03-02T05:17:15.012Z,0
2017-03-02T05:18:25.286Z,0
2017-03-02T05:19:35.934Z,0
2017-03-02T05:20:46.215Z,0
2017-03-02T05:21:56.505Z,0
2017-03-02T05:23:07.487Z,0
2017-03-02T05:24:17.770Z,0
2017-03-02T05:25:27.685Z,0
2017-03-02T05:26:37.947Z,0
2017-03-02T05:27:48.609Z,0
2017-03-02T05:28:58.640Z,0
2017-03-02T05:30:08.917Z,0
2017-03-02T05:31:18.413Z,0
2017-03-02T05:32:28.703Z,0
2017-03-02T05:33:39.010Z,0
2017-03-02T05:34:50.036Z,0
2017-03-02T05:36:00.684Z,0
2017-03-02T05:37:10.948Z,0
2017-03-02T05:38:21.668Z,0
2017-03-02T05:39:31.960Z,0
2017-03-02T05:40:42.978Z,0
2017-03-02T05:41:53.682Z,0
2017-03-02T05:43:03.986Z,0
2017-03-02T05:44:13.860Z,0
2017-03-02T05:45:24.544Z,0
2017-03-02T05:46:35.346Z,0
2017-03-02T05:47:45.631Z,0
2017-03-02T05:48:55.892Z,0
2017-03-02T05:50:06.561Z,0
2017-03-02T05:51:17.218Z,0
2017-03-02T05:52:27.766Z,4
2017-03-02T05:53:38.029Z,0
2017-03-02T05:54:48.296Z,4
2017-03-02T05:55:58.563Z,4
2017-03-02T05:57:08.449Z,4
2017-03-02T05:58:19.258Z,8
2017-03-02T05:59:29.513Z,8
2017-03-02T06:00:39.786Z,12
2017-03-02T06:01:50.462Z,12
2017-03-02T06:03:00.681Z,12
2017-03-02T06:04:11.772Z,12
2017-03-02T06:05:22.470Z,12
2017-03-02T06:06:32.765Z,16
2017-03-02T06:07:43.042Z,24
2017-03-02T06:08:53.719Z,32
2017-03-02T06:10:04.491Z,32
2017-03-02T06:11:14.739Z,44
2017-03-02T06:12:24.998Z,48
2017-03-02T06:13:35.665Z,52
2017-03-02T06:14:46.320Z,60
2017-03-02T06:15:56.763Z,68
2017-03-02T06:17:06.680Z,80
2017-03-02T06:18:16.944Z,88
2017-03-02T06:19:27.206Z,96
2017-03-02T06:20:37.092Z,104
2017-03-02T06:21:47.694Z,112
2017-03-02T06:22:58.363Z,128
2017-03-02T06:24:07.853Z,152
2017-03-02T06:25:18.502Z,152
2017-03-02T06:26:28.757Z,152
2017-03-02T06:27:39.187Z,156
2017-03-02T06:28:49.900Z,152
2017-03-02T06:30:00.171Z,144
2017-03-02T06:31:10.443Z,172
2017-03-02T06:32:20.349Z,184
2017-03-02T06:33:31.274Z,184
2017-03-02T06:34:41.558Z,196
2017-03-02T06:35:51.828Z,212
2017-03-02T06:37:02.100Z,236
2017-03-02T06:38:12.374Z,248
2017-03-02T06:39:23.289Z,288
2017-03-02T06:40:32.791Z,328
2017-03-02T06:41:43.047Z,348
2017-03-02T06:42:53.699Z,340
2017-03-02T06:44:03.199Z,380
2017-03-02T06:45:13.835Z,452
2017-03-02T06:46:23.715Z,340
2017-03-02T06:47:34.387Z,344
2017-03-02T06:48:44.693Z,296
2017-03-02T06:49:54.626Z,260
2017-03-02T06:51:05.585Z,280
2017-03-02T06:52:15.506Z,296
2017-03-02T06:53:25.795Z,428
2017-03-02T06:54:36.092Z,432
2017-03-02T06:55:46.740Z,268
2017-03-02T06:56:57.498Z,224
2017-03-02T06:58:08.190Z,184
2017-03-02T06:59:18.834Z,164
2017-03-02T07:00:29.097Z,148
2017-03-02T07:01:39.396Z,184
2017-03-02T07:02:50.009Z,204
2017-03-02T07:03:59.896Z,276
2017-03-02T07:05:09.793Z,280
2017-03-02T07:06:20.076Z,240
2017-03-02T07:07:30.359Z,188
2017-03-02T07:08:41.289Z,144
2017-03-02T07:09:51.583Z,124
2017-03-02T07:11:02.237Z,132
2017-03-02T07:12:12.513Z,280
2017-03-02T07:13:22.765Z,260
2017-03-02T07:14:33.189Z,200
2017-03-02T07:15:43.085Z,196
2017-03-02T07:16:53.374Z,120
2017-03-02T07:18:03.663Z,148
2017-03-02T07:19:13.922Z,204
2017-03-02T07:20:24.472Z,228
2017-03-02T07:21:34.338Z,332
2017-03-02T07:22:44.224Z,484
2017-03-02T07:23:54.114Z,372
2017-03-02T07:25:04.387Z,440
2017-03-02T07:26:14.948Z,620
2017-03-02T07:27:24.842Z,516
2017-03-02T07:28:35.122Z,552
2017-03-02T07:29:45.399Z,392
2017-03-02T07:30:55.721Z,644
2017-03-02T07:32:06.003Z,664
2017-03-02T07:33:15.892Z,748
2017-03-02T07:34:26.550Z,664
2017-03-02T07:35:36.416Z,500
2017-03-02T07:36:46.727Z,360
2017-03-02T07:37:56.723Z,400
2017-03-02T07:39:06.653Z,628
2017-03-02T07:40:17.324Z,464
2017-03-02T07:41:26.821Z,384
2017-03-02T07:42:37.093Z,264
2017-03-02T07:43:47.141Z,220
2017-03-02T07:44:56.642Z,212
2017-03-02T07:46:06.962Z,308
2017-03-02T07:47:17.235Z,372
2017-03-02T07:48:27.494Z,504
2017-03-02T07:49:38.331Z,704
2017-03-02T07:50:48.997Z,1032
2017-03-02T07:51:59.258Z,1256
2017-03-02T07:53:09.148Z,1604
2017-03-02T07:54:19.813Z,1940
2017-03-02T07:55:30.395Z,1856
2017-03-02T07:56:40.662Z,1768
2017-03-02T07:57:51.331Z,1312
2017-03-02T07:59:01.226Z,988
2017-03-02T08:00:11.130Z,992
2017-03-02T08:01:20.514Z,1092
2017-03-02T08:02:30.412Z,1052
2017-03-02T08:03:39.917Z,1212
2017-03-02T08:04:50.198Z,980
2017-03-02T08:05:59.691Z,996
2017-03-02T08:07:10.311Z,928
2017-03-02T08:08:20.217Z,924
2017-03-02T08:09:30.878Z,960
2017-03-02T08:10:40.799Z,872
2017-03-02T08:11:51.446Z,1024
2017-03-02T08:13:01.989Z,1200
2017-03-02T08:14:12.656Z,1868
2017-03-02T08:15:22.942Z,1728
2017-03-02T08:16:33.208Z,1516
2017-03-02T08:17:43.090Z,1508
2017-03-02T08:18:53.357Z,1480
2017-03-02T08:20:04.016Z,1004
2017-03-02T08:21:13.915Z,1096
2017-03-02T08:22:24.579Z,1228
2017-03-02T08:23:35.237Z,828
2017-03-02T08:24:46.214Z,592
2017-03-02T08:25:56.885Z,876
2017-03-02T08:27:07.173Z,908
2017-03-02T08:28:17.058Z,1060
2017-03-02T08:29:27.339Z,1228
2017-03-02T08:30:37.742Z,1544
2017-03-02T08:31:48.406Z,1672
2017-03-02T08:32:58.697Z,1968
2017-03-02T08:34:09.410Z,1564
2017-03-02T08:35:20.009Z,1252
2017-03-02T08:36:30.827Z,1520
2017-03-02T08:37:41.123Z,1744
2017-03-02T08:38:51.773Z,1860
2017-03-02T08:40:02.038Z,2164
2017-03-02T08:41:12.714Z,1744
2017-03-02T08:42:22.453Z,1676
2017-03-02T08:43:33.266Z,1560
2017-03-02T08:44:43.555Z,1492
2017-03-02T08:45:54.215Z,1868
2017-03-02T08:47:04.096Z,1784
2017-03-02T08:48:14.619Z,1824
2017-03-02T08:49:25.287Z,2036
2017-03-02T08:50:35.548Z,1676
2017-03-02T08:51:45.037Z,1964
2017-03-02T08:52:54.534Z,1972
2017-03-02T08:54:05.484Z,1960
2017-03-02T08:55:15.770Z,1912
2017-03-02T08:56:26.423Z,2108
2017-03-02T08:57:37.102Z,2040
2017-03-02T08:58:47.366Z,1680
2017-03-02T08:59:57.900Z,1512
2017-03-02T09:01:08.156Z,1240
2017-03-02T09:02:18.027Z,1056
2017-03-02T09:03:28.683Z,1324
2017-03-02T09:04:38.978Z,1288
2017-03-02T09:05:49.405Z,1128
2017-03-02T09:06:59.695Z,1148
2017-03-02T09:08:09.986Z,1260
2017-03-02T09:09:19.876Z,1156
2017-03-02T09:10:29.354Z,1252
2017-03-02T09:11:39.109Z,900
2017-03-02T09:12:49.901Z,1136
2017-03-02T09:13:59.791Z,1048
2017-03-02T09:15:10.075Z,896
2017-03-02T09:16:19.964Z,1008
2017-03-02T09:17:30.398Z,1012
2017-03-02T09:18:40.691Z,1136
2017-03-02T09:19:50.597Z,1088
2017-03-02T09:21:01.255Z,1032
2017-03-02T09:22:11.545Z,880
2017-03-02T09:23:21.781Z,844
2017-03-02T09:24:32.050Z,724
2017-03-02T09:25:42.337Z,824
2017-03-02T09:26:51.832Z,988
2017-03-02T09:28:02.478Z,856
2017-03-02T09:29:12.707Z,884
2017-03-02T09:30:22.975Z,872
2017-03-02T09:31:33.226Z,796
2017-03-02T09:32:43.495Z,784
2017-03-02T09:33:53.746Z,860
2017-03-02T09:35:04.538Z,1088
2017-03-02T09:36:14.813Z,1016
2017-03-02T09:37:25.082Z,1096
2017-03-02T09:38:35.787Z,940
2017-03-02T09:39:46.472Z,984
2017-03-02T09:40:56.447Z,1052
2017-03-02T09:42:07.116Z,1132
2017-03-02T09:43:17.433Z,1104
2017-03-02T09:44:28.133Z,1012
2017-03-02T09:45:38.414Z,860
2017-03-02T09:46:49.328Z,796
2017-03-02T09:47:59.593Z,996
2017-03-02T09:49:10.260Z,1168
2017-03-02T09:50:20.539Z,1140
2017-03-02T09:51:30.028Z,1008
2017-03-02T09:52:40.562Z,1004
2017-03-02T09:53:50.847Z,1080
2017-03-02T09:55:01.116Z,1304
2017-03-02T09:56:11.378Z,1212
2017-03-02T09:57:21.663Z,1532
2017-03-02T09:58:32.102Z,1596
2017-03-02T09:59:42.751Z,1252
2017-03-02T10:00:53.410Z,1328
2017-03-02T10:02:03.285Z,1316
2017-03-02T10:03:13.945Z,1616
2017-03-02T10:04:24.564Z,1488
2017-03-02T10:05:34.452Z,1544
2017-03-02T10:06:44.746Z,1636
2017-03-02T10:07:54.621Z,1296
2017-03-02T10:09:04.883Z,1216
2017-03-02T10:10:15.257Z,1216
2017-03-02T10:11:25.527Z,1312
2017-03-02T10:12:35.794Z,1080
2017-03-02T10:13:46.061Z,976
2017-03-02T10:14:56.331Z,1084
2017-03-02T10:16:06.917Z,1120
2017-03-02T10:17:17.584Z,968
2017-03-02T10:18:28.230Z,964
2017-03-02T10:19:38.895Z,996
2017-03-02T10:20:49.199Z,844
2017-03-02T10:22:00.125Z,904
2017-03-02T10:23:09.611Z,976
2017-03-02T10:24:19.885Z,876
2017-03-02T10:25:30.557Z,1112
2017-03-02T10:26:41.220Z,940
2017-03-02T10:27:52.037Z,804
2017-03-02T10:29:02.590Z,844
2017-03-02T10:30:13.241Z,920
2017-03-02T10:31:23.888Z,980
2017-03-02T10:32:34.151Z,920
2017-03-02T10:33:45.068Z,740
2017-03-02T10:34:55.347Z,728
2017-03-02T10:36:04.851Z,896
2017-03-02T10:37:15.519Z,868
2017-03-02T10:38:25.407Z,1096
2017-03-02T10:39:35.966Z,1256
2017-03-02T10:40:45.864Z,1168
2017-03-02T10:41:55.765Z,1056
2017-03-02T10:43:06.448Z,852
2017-03-02T10:44:16.347Z,940
2017-03-02T10:45:26.901Z,920
2017-03-02T10:46:37.239Z,740
2017-03-02T10:47:47.516Z,908
2017-03-02T10:48:57.769Z,1180
2017-03-02T10:50:07.655Z,1068
2017-03-02T10:51:17.482Z,1064
2017-03-02T10:52:27.352Z,1028
2017-03-02T10:53:37.630Z,952
2017-03-02T10:54:48.281Z,664
2017-03-02T10:55:57.791Z,912
2017-03-02T10:57:08.402Z,960
2017-03-02T10:58:18.302Z,896
2017-03-02T10:59:27.784Z,848
2017-03-02T11:00:38.078Z,780
2017-03-02T11:01:48.355Z,672
2017-03-02T11:02:59.616Z,848
2017-03-02T11:04:10.287Z,804
2017-03-02T11:05:20.953Z,756
2017-03-02T11:06:31.223Z,780
2017-03-02T11:07:41.899Z,780
2017-03-02T11:08:51.653Z,1008
2017-03-02T11:10:02.294Z,720
2017-03-02T11:11:12.551Z,968
2017-03-02T11:12:22.436Z,1100
2017-03-02T11:13:32.723Z,1240
2017-03-02T11:14:43.300Z,1488
2017-03-02T11:15:53.209Z,1400
2017-03-02T11:17:03.882Z,1348
2017-03-02T11:18:14.146Z,1304
2017-03-02T11:19:24.038Z,1324
2017-03-02T11:20:34.951Z,1204
2017-03-02T11:21:44.839Z,1152
2017-03-02T11:22:54.747Z,1328
2017-03-02T11:24:04.682Z,1344
2017-03-02T11:25:14.555Z,1244
2017-03-02T11:26:24.796Z,1260
2017-03-02T11:27:34.291Z,1320
2017-03-02T11:28:44.944Z,1212
2017-03-02T11:29:55.595Z,1160
2017-03-02T11:31:05.882Z,864
2017-03-02T11:32:15.895Z,712
2017-03-02T11:33:26.159Z,712
2017-03-02T11:34:36.440Z,520
2017-03-02T11:35:47.107Z,464
2017-03-02T11:36:57.789Z,540
2017-03-02T11:38:08.335Z,628
2017-03-02T11:39:19.034Z,516
2017-03-02T11:40:28.545Z,528
2017-03-02T11:41:38.839Z,676
2017-03-02T11:42:47.950Z,924
2017-03-02T11:43:58.361Z,800
2017-03-02T11:45:08.645Z,916
2017-03-02T11:46:19.305Z,1240
2017-03-02T11:47:30.111Z,1144
2017-03-02T11:48:40.381Z,1068
2017-03-02T11:49:51.284Z,1248
2017-03-02T11:51:01.933Z,1288
2017-03-02T11:52:11.817Z,1304
2017-03-02T11:53:22.128Z,1276
2017-03-02T11:54:31.598Z,1036
2017-03-02T11:55:41.998Z,1108
2017-03-02T11:56:52.252Z,1140
2017-03-02T11:58:02.518Z,1216
2017-03-02T11:59:12.466Z,1004
2017-03-02T12:00:22.744Z,1000
2017-03-02T12:01:33.389Z,1188
2017-03-02T12:02:44.062Z,1344
2017-03-02T12:03:55.037Z,1512
2017-03-02T12:05:04.953Z,1484
2017-03-02T12:06:15.261Z,1352
2017-03-02T12:07:25.821Z,1352
2017-03-02T12:08:36.072Z,1624
2017-03-02T12:09:46.339Z,1496
2017-03-02T12:10:57.017Z,1432
2017-03-02T12:12:07.302Z,1388
2017-03-02T12:13:17.564Z,1040
2017-03-02T12:14:27.444Z,916
2017-03-02T12:15:38.125Z,1208
2017-03-02T12:16:48.415Z,1332
2017-03-02T12:17:57.534Z,1464
2017-03-02T12:19:08.233Z,1432
2017-03-02T12:20:18.504Z,1448
2017-03-02T12:21:28.794Z,1252
2017-03-02T12:22:39.470Z,1452
2017-03-02T12:23:50.127Z,1376
2017-03-02T12:25:01.055Z,1460
2017-03-02T12:26:11.737Z,1396
2017-03-02T12:27:21.998Z,1208
2017-03-02T12:28:32.682Z,1048
2017-03-02T12:29:42.183Z,1016
2017-03-02T12:30:52.614Z,1252
2017-03-02T12:32:02.879Z,1332
2017-03-02T12:33:13.170Z,1068
2017-03-02T12:34:23.829Z,1000
2017-03-02T12:35:34.495Z,1132
2017-03-02T12:36:45.476Z,1084
2017-03-02T12:37:55.750Z,1188
2017-03-02T12:39:06.415Z,1112
2017-03-02T12:40:16.710Z,1480
2017-03-02T12:41:26.983Z,1360
2017-03-02T12:42:37.117Z,1280
2017-03-02T12:43:47.374Z,1236
2017-03-02T12:44:57.667Z,1228
2017-03-02T12:46:07.168Z,1348
2017-03-02T12:47:16.704Z,1416
2017-03-02T12:48:26.745Z,1360
2017-03-02T12:49:36.648Z,1196
2017-03-02T12:50:47.308Z,976
2017-03-02T12:51:58.016Z,780
2017-03-02T12:53:08.286Z,680
2017-03-02T12:54:18.920Z,696
2017-03-02T12:55:29.210Z,620
2017-03-02T12:56:39.362Z,584
2017-03-02T12:57:50.079Z,632
2017-03-02T12:59:00.358Z,620
2017-03-02T13:00:10.798Z,708
2017-03-02T13:01:21.471Z,656
2017-03-02T13:02:32.141Z,632
2017-03-02T13:03:42.425Z,568
2017-03-02T13:04:53.089Z,488
2017-03-02T13:06:03.714Z,540
2017-03-02T13:07:13.975Z,440
2017-03-02T13:08:24.229Z,524
2017-03-02T13:09:34.504Z,600
2017-03-02T13:10:44.410Z,640
2017-03-02T13:11:54.488Z,696
2017-03-02T13:13:05.191Z,840
2017-03-02T13:14:15.915Z,912
2017-03-02T13:15:26.195Z,824
2017-03-02T13:16:36.860Z,900
2017-03-02T13:17:47.828Z,1124
2017-03-02T13:18:58.106Z,1180
2017-03-02T13:20:08.770Z,1020
2017-03-02T13:21:19.044Z,892
2017-03-02T13:22:28.912Z,784
2017-03-02T13:23:39.911Z,576
2017-03-02T13:24:50.557Z,860
2017-03-02T13:26:00.828Z,864
2017-03-02T13:27:11.506Z,836
2017-03-02T13:28:21.792Z,720
2017-03-02T13:29:32.035Z,668
2017-03-02T13:30:42.306Z,644
2017-03-02T13:31:52.205Z,476
2017-03-02T13:33:02.468Z,516
2017-03-02T13:34:12.738Z,596
2017-03-02T13:35:22.729Z,696
2017-03-02T13:36:33.397Z,604
2017-03-02T13:37:43.684Z,468
2017-03-02T13:38:53.958Z,352
2017-03-02T13:40:04.634Z,320
2017-03-02T13:41:15.639Z,388
2017-03-02T13:42:26.329Z,416
2017-03-02T13:43:37.094Z,408
2017-03-02T13:44:47.403Z,452
2017-03-02T13:45:57.706Z,656
2017-03-02T13:47:08.631Z,736
2017-03-02T13:48:18.543Z,976
2017-03-02T13:49:28.453Z,1088
2017-03-02T13:50:39.122Z,924
2017-03-02T13:51:48.991Z,912
2017-03-02T13:52:59.412Z,820
2017-03-02T13:54:10.080Z,712
2017-03-02T13:55:20.370Z,688
2017-03-02T13:56:31.042Z,768
2017-03-02T13:57:40.930Z,856
2017-03-02T13:58:51.871Z,684
2017-03-02T14:00:02.551Z,624
2017-03-02T14:01:12.449Z,568
2017-03-02T14:02:22.722Z,536
2017-03-02T14:03:32.605Z,432
2017-03-02T14:04:43.237Z,376
2017-03-02T14:05:53.922Z,308
2017-03-02T14:07:04.603Z,340
2017-03-02T14:08:15.282Z,500
2017-03-02T14:09:25.170Z,816
2017-03-02T14:10:35.776Z,1048
2017-03-02T14:11:46.025Z,968
2017-03-02T14:12:55.893Z,904
2017-03-02T14:14:06.588Z,928
2017-03-02T14:15:17.252Z,972
2017-03-02T14:16:28.072Z,952
2017-03-02T14:17:37.974Z,848
2017-03-02T14:18:48.656Z,852
2017-03-02T14:19:59.234Z,800
2017-03-02T14:21:09.146Z,736
2017-03-02T14:22:19.553Z,892
2017-03-02T14:23:29.815Z,884
2017-03-02T14:24:39.684Z,736
2017-03-02T14:25:49.173Z,724
2017-03-02T14:26:58.678Z,936
2017-03-02T14:28:09.678Z,1024
2017-03-02T14:29:20.323Z,944
2017-03-02T14:30:31.002Z,800
2017-03-02T14:31:41.277Z,884
2017-03-02T14:32:51.185Z,1000
2017-03-02T14:34:01.576Z,900
2017-03-02T14:35:11.845Z,812
2017-03-02T14:36:22.497Z,696
2017-03-02T14:37:32.745Z,712
2017-03-02T14:38:43.067Z,736
2017-03-02T14:39:53.724Z,776
2017-03-02T14:41:04.411Z,680
2017-03-02T14:42:15.066Z,556
2017-03-02T14:43:25.720Z,600
2017-03-02T14:44:35.981Z,736
2017-03-02T14:45:46.342Z,820
2017-03-02T14:46:56.249Z,900
2017-03-02T14:48:06.151Z,892
2017-03-02T14:49:16.808Z,856
2017-03-02T14:50:26.315Z,864
2017-03-02T14:51:36.971Z,916
2017-03-02T14:52:46.845Z,904
2017-03-02T14:53:56.716Z,896
2017-03-02T14:55:07.366Z,768
2017-03-02T14:56:18.026Z,760
2017-03-02T14:57:28.845Z,656
2017-03-02T14:58:39.117Z,680
2017-03-02T14:59:49.387Z,660
2017-03-02T15:01:00.052Z,584
2017-03-02T15:02:10.723Z,608
2017-03-02T15:03:21.148Z,536
2017-03-02T15:04:31.413Z,456
2017-03-02T15:05:42.066Z,448
2017-03-02T15:06:51.572Z,456
2017-03-02T15:08:02.267Z,524
2017-03-02T15:09:13.178Z,568
2017-03-02T15:10:23.480Z,672
2017-03-02T15:11:33.755Z,628
2017-03-02T15:12:44.053Z,680
2017-03-02T15:13:54.704Z,756
2017-03-02T15:15:05.097Z,824
2017-03-02T15:16:15.756Z,888
2017-03-02T15:17:26.432Z,836
2017-03-02T15:18:37.117Z,820
2017-03-02T15:19:47.788Z,628
2017-03-02T15:20:58.599Z,448
2017-03-02T15:22:08.876Z,492
2017-03-02T15:23:19.160Z,508
2017-03-02T15:24:29.052Z,520
2017-03-02T15:25:39.592Z,652
2017-03-02T15:26:49.622Z,648
2017-03-02T15:28:00.299Z,560
2017-03-02T15:29:10.951Z,460
2017-03-02T15:30:21.226Z,464
2017-03-02T15:31:31.103Z,644
2017-03-02T15:32:41.527Z,784
2017-03-02T15:33:51.417Z,844
2017-03-02T15:35:02.097Z,760
2017-03-02T15:36:12.353Z,864
2017-03-02T15:37:22.618Z,868
2017-03-02T15:38:33.145Z,792
2017-03-02T15:39:43.810Z,708
2017-03-02T15:40:53.692Z,672
2017-03-02T15:42:03.970Z,628
2017-03-02T15:43:14.655Z,612
2017-03-02T15:44:25.283Z,616
2017-03-02T15:45:35.948Z,624
2017-03-02T15:46:46.215Z,624
2017-03-02T15:47:56.866Z,592
2017-03-02T15:49:07.813Z,608
2017-03-02T15:50:18.625Z,540
2017-03-02T15:51:29.289Z,556
2017-03-02T15:52:39.170Z,556
2017-03-02T15:53:49.440Z,520
2017-03-02T15:54:59.705Z,504
2017-03-02T15:56:10.253Z,476
2017-03-02T15:57:20.133Z,456
2017-03-02T15:58:30.015Z,448
2017-03-02T15:59:40.274Z,436
2017-03-02T16:00:50.935Z,412
2017-03-02T16:02:01.304Z,412
2017-03-02T16:03:11.187Z,404
2017-03-02T16:04:21.848Z,412
2017-03-02T16:05:32.108Z,408
2017-03-02T16:06:42.390Z,404
2017-03-02T16:07:52.367Z,396
2017-03-02T16:09:02.647Z,384
2017-03-02T16:10:13.320Z,388
2017-03-02T16:11:23.993Z,360
2017-03-02T16:12:33.886Z,344
2017-03-02T16:13:44.072Z,332
2017-03-02T16:14:53.958Z,328
2017-03-02T16:16:04.230Z,344
2017-03-02T16:17:14.117Z,324
2017-03-02T16:18:24.407Z,300
2017-03-02T16:19:34.961Z,276
2017-03-02T16:20:45.247Z,284
2017-03-02T16:21:55.549Z,284
2017-03-02T16:23:05.824Z,280
2017-03-02T16:24:16.498Z,272
2017-03-02T16:25:27.321Z,268
2017-03-02T16:26:37.605Z,264